Time;durP1;ratioP1;P1;durP2;ratioP2;P2;SDS_P1;SDS_P2;PMS_P1;PMS_P2;Temp;Humidity;BMP_temperature;BMP_pressure;BME280_temperature;BME280_humidity;BME280_pressure;Samples;Min_cycle;Max_cycle;Signal;HPM_P1;HPM_P2
2022/01/02 00:02:57;;;;;;;8.75;3.50;;;;;;;10.60;93.12;101470.97;15285198;19;20013;-70
2022/01/02 00:08:02;;;;;;;7.95;3.75;;;;;;;10.61;92.89;101468.41;15286828;19;20083;-69
2022/01/02 00:13:05;;;;;;;10.30;3.65;;;;;;;10.65;92.70;101469.38;15285370;19;20105;-70
2022/01/02 00:18:11;;;;;;;8.95;4.15;;;;;;;10.59;92.72;101446.50;15286639;19;20085;-70
2022/01/02 00:23:20;;;;;;;8.45;3.42;;;;;;;10.61;92.58;101444.84;15285386;19;20546;-70
2022/01/02 00:28:22;;;;;;;10.30;3.75;;;;;;;10.58;92.71;101447.38;15286088;19;20090;-70
2022/01/02 00:33:24;;;;;;;7.00;3.22;;;;;;;10.59;92.75;101443.00;15285658;19;20011;-70
2022/01/02 00:38:26;;;;;;;11.38;4.18;;;;;;;10.58;92.99;101433.38;15287352;19;20439;-70
2022/01/02 00:43:45;;;;;;;12.23;4.35;;;;;;;10.51;94.17;101439.28;15284642;19;20077;-70
2022/01/02 00:48:47;;;;;;;9.02;4.40;;;;;;;10.44;94.81;101423.41;15285382;19;20022;-69
2022/01/02 00:53:50;;;;;;;9.77;4.20;;;;;;;10.35;95.38;101417.91;15306691;19;20086;-71
2022/01/02 00:58:59;;;;;;;10.73;4.38;;;;;;;10.34;95.91;101442.31;15313197;19;20417;-70
2022/01/02 01:04:06;;;;;;;9.82;4.15;;;;;;;10.23;97.38;101454.19;15311659;19;20014;-69
2022/01/02 01:09:07;;;;;;;11.52;4.57;;;;;;;10.10;98.63;101447.69;15314481;19;20013;-70
2022/01/02 01:14:09;;;;;;;11.63;4.75;;;;;;;9.96;99.83;101415.88;15308660;19;20029;-70
2022/01/02 01:19:11;;;;;;;7.57;3.97;;;;;;;9.94;100.00;101385.28;15313335;19;20014;-70
2022/01/02 01:24:13;;;;;;;10.48;4.68;;;;;;;9.85;100.00;101367.63;15306966;19;20014;-70
2022/01/02 01:29:14;;;;;;;13.88;4.72;;;;;;;9.87;100.00;101389.47;15312845;19;20039;-70
2022/01/02 01:34:16;;;;;;;9.57;4.25;;;;;;;9.77;100.00;101411.81;15308177;19;20384;-70
2022/01/02 01:39:18;;;;;;;14.75;5.10;;;;;;;9.72;100.00;101403.84;15311995;19;20015;-69
2022/01/02 01:44:38;;;;;;;11.52;4.85;;;;;;;9.67;100.00;101404.56;15305589;19;20018;-70
2022/01/02 01:49:41;;;;;;;10.63;4.88;;;;;;;9.67;100.00;101399.34;15309299;19;20011;-70
2022/01/02 01:54:43;;;;;;;11.85;5.05;;;;;;;9.71;100.00;101389.00;15304500;19;20082;-70
2022/01/02 01:59:48;;;;;;;12.77;5.13;;;;;;;9.68;100.00;101380.16;15309088;19;20019;-70
2022/01/02 02:04:50;;;;;;;13.57;5.63;;;;;;;9.65;100.00;101374.84;15298933;19;20018;-70
2022/01/02 02:10:12;;;;;;;11.45;5.07;;;;;;;9.69;100.00;101366.25;15294744;19;20030;-69
2022/01/02 02:15:17;;;;;;;14.43;5.83;;;;;;;9.63;100.00;101366.09;15187109;19;2004288;-70
2022/01/02 02:20:30;;;;;;;16.65;5.72;;;;;;;9.60;100.00;101369.47;15293262;19;20014;-70
2022/01/02 02:25:37;;;;;;;12.70;5.72;;;;;;;9.58;100.00;101365.94;15287324;19;20028;-71
2022/01/02 02:30:44;;;;;;;15.15;5.82;;;;;;;9.57;100.00;101358.94;15291959;19;20006;-70
2022/01/02 02:35:47;;;;;;;12.75;5.32;;;;;;;9.59;100.00;101370.31;15291876;19;20014;-70
2022/01/02 02:40:50;;;;;;;11.60;4.97;;;;;;;9.57;100.00;101356.31;15292303;19;20011;-70
2022/01/02 02:51:22;;;;;;;15.80;6.32;;;;;;;9.61;100.00;101329.44;15291579;19;20094;-70
2022/01/02 02:56:29;;;;;;;12.65;6.25;;;;;;;9.54;100.00;101317.88;15292633;19;20014;-69
2022/01/02 03:01:31;;;;;;;17.23;5.90;;;;;;;9.58;100.00;101310.13;15294053;19;20015;-69
2022/01/02 03:06:35;;;;;;;18.70;6.55;;;;;;;9.62;100.00;101310.25;15290218;19;20348;-69
2022/01/02 03:11:42;;;;;;;9.43;4.70;;;;;;;9.63;100.00;101290.25;15290059;19;20360;-70
2022/01/02 03:16:44;;;;;;;12.27;5.28;;;;;;;9.63;100.00;101280.66;15287080;19;20018;-69
2022/01/02 03:21:46;;;;;;;18.17;5.82;;;;;;;9.59;100.00;101288.38;15288651;19;20042;-70
2022/01/02 03:26:47;;;;;;;13.50;5.10;;;;;;;9.53;100.00;101270.78;15288935;19;20010;-70
2022/01/02 03:31:49;;;;;;;15.30;5.70;;;;;;;9.56;100.00;101247.34;15287078;19;20018;-71
2022/01/02 03:36:52;;;;;;;16.13;5.63;;;;;;;9.53;100.00;101239.41;15287712;19;20006;-70
2022/01/02 03:41:53;;;;;;;15.50;5.65;;;;;;;9.52;100.00;101227.22;15286956;19;20693;-69
2022/01/02 03:46:55;;;;;;;13.35;5.07;;;;;;;9.51;100.00;101225.44;15286129;19;20034;-69
2022/01/02 03:51:58;;;;;;;13.00;5.57;;;;;;;9.55;100.00;101209.00;15286060;19;20007;-69
2022/01/02 03:57:00;;;;;;;18.05;6.28;;;;;;;9.52;100.00;101193.22;15286728;19;20014;-69
2022/01/02 04:02:03;;;;;;;13.77;5.57;;;;;;;9.59;100.00;101179.44;15288284;19;20619;-69
2022/01/02 04:07:05;;;;;;;11.30;5.53;;;;;;;9.53;100.00;101172.34;15287666;19;20493;-70
2022/01/02 04:12:08;;;;;;;14.63;5.50;;;;;;;9.55;100.00;101162.81;15287066;19;20427;-70
2022/01/02 04:17:09;;;;;;;14.98;5.22;;;;;;;9.58;100.00;101164.63;15287433;19;20002;-70
2022/01/02 04:22:11;;;;;;;16.65;5.47;;;;;;;9.57;100.00;101157.63;15284264;19;20018;-70
2022/01/02 04:27:13;;;;;;;14.05;5.57;;;;;;;9.55;100.00;101135.78;15283769;19;20010;-70
2022/01/02 04:32:16;;;;;;;12.25;4.53;;;;;;;9.54;100.00;101126.16;15284512;19;20374;-70
2022/01/02 04:37:19;;;;;;;13.40;5.30;;;;;;;9.58;100.00;101120.19;15285560;19;20086;-70
2022/01/02 04:42:20;;;;;;;15.50;5.28;;;;;;;9.59;100.00;101114.09;15283870;19;20380;-70
2022/01/02 04:47:22;;;;;;;12.68;5.15;;;;;;;9.54;100.00;101111.34;15282257;19;20038;-70
2022/01/02 04:52:24;;;;;;;13.02;5.10;;;;;;;9.65;100.00;101098.59;15282526;19;20025;-70
2022/01/02 04:57:26;;;;;;;15.52;5.95;;;;;;;9.61;100.00;101109.81;15284010;19;20056;-70
2022/01/02 05:02:28;;;;;;;15.82;5.13;;;;;;;9.62;100.00;101089.75;15283769;19;20086;-70
2022/01/02 05:07:30;;;;;;;14.63;4.97;;;;;;;9.63;100.00;101078.47;15282739;19;20014;-70
2022/01/02 05:12:32;;;;;;;16.27;5.90;;;;;;;9.62;100.00;101076.69;15280496;19;20010;-70
2022/01/02 05:17:34;;;;;;;11.18;4.55;;;;;;;9.71;100.00;101062.13;15284087;19;20365;-70
2022/01/02 05:22:35;;;;;;;10.65;4.78;;;;;;;9.66;100.00;101063.72;15281896;19;20042;-70
2022/01/02 05:27:37;;;;;;;18.40;5.32;;;;;;;9.75;100.00;101067.44;15280932;19;20037;-70
2022/01/02 05:32:39;;;;;;;20.67;5.88;;;;;;;9.80;100.00;101055.34;15278983;19;20034;-70
2022/01/02 05:37:44;;;;;;;13.98;4.82;;;;;;;9.89;100.00;101056.47;15284273;19;20014;-69
2022/01/02 05:42:46;;;;;;;10.98;4.65;;;;;;;9.85;100.00;101038.06;15292721;19;20372;-70
2022/01/02 05:47:48;;;;;;;14.43;4.97;;;;;;;9.88;100.00;101032.91;15295107;19;20011;-70
2022/01/02 05:52:50;;;;;;;13.77;4.20;;;;;;;9.89;100.00;101035.53;15294760;19;20028;-70
2022/01/02 05:57:52;;;;;;;12.50;4.03;;;;;;;10.04;100.00;101037.63;15295262;19;20031;-70
2022/01/02 06:02:54;;;;;;;14.45;4.57;;;;;;;10.11;100.00;101029.94;15293196;19;20017;-70
2022/01/02 06:07:57;;;;;;;10.13;3.33;;;;;;;10.18;100.00;101022.25;15293584;19;20038;-70
2022/01/02 06:12:59;;;;;;;13.30;3.83;;;;;;;10.24;100.00;101031.97;15291123;19;20054;-71
2022/01/02 06:18:01;;;;;;;10.38;3.47;;;;;;;10.25;100.00;101015.41;15295262;19;20577;-70
2022/01/02 06:23:03;;;;;;;12.68;3.65;;;;;;;10.26;100.00;101014.56;15291026;19;20093;-70
2022/01/02 06:28:05;;;;;;;10.00;3.05;;;;;;;10.24;100.00;100998.81;15294469;19;20011;-70
2022/01/02 06:33:07;;;;;;;8.88;3.65;;;;;;;10.29;100.00;101009.38;15290941;19;20016;-70
2022/01/02 06:38:19;;;;;;;11.88;3.72;;;;;;;10.30;100.00;100998.09;15294066;19;20339;-70
2022/01/02 06:43:24;;;;;;;11.90;3.35;;;;;;;10.32;100.00;100990.25;15288303;19;20010;-70
2022/01/02 06:48:26;;;;;;;8.48;3.30;;;;;;;10.37;100.00;100980.78;15292884;19;20007;-70
2022/01/02 06:53:28;;;;;;;13.35;3.22;;;;;;;10.38;100.00;100972.97;15287387;19;20438;-70
2022/01/02 06:58:30;;;;;;;10.60;2.90;;;;;;;10.40;100.00;100975.63;15290180;19;20517;-70
2022/01/02 07:03:37;;;;;;;11.77;3.13;;;;;;;10.59;100.00;100979.50;15289013;19;20372;-70
2022/01/02 07:08:39;;;;;;;15.25;3.75;;;;;;;10.63;100.00;100960.41;15290472;19;20014;-70
2022/01/02 07:13:40;;;;;;;10.55;2.75;;;;;;;10.72;100.00;100952.72;15287287;19;20015;-70
2022/01/02 07:18:42;;;;;;;10.18;2.78;;;;;;;10.72;100.00;100918.66;15289926;19;20094;-71
2022/01/02 07:23:44;;;;;;;6.40;2.20;;;;;;;10.71;100.00;100908.16;15294043;19;20021;-70
2022/01/02 07:28:46;;;;;;;12.40;2.80;;;;;;;10.74;100.00;100897.75;15290271;19;20086;-71
2022/01/02 07:33:48;;;;;;;11.48;3.78;;;;;;;10.81;100.00;100893.47;15287889;19;20092;-70
2022/01/02 07:38:49;;;;;;;8.43;2.80;;;;;;;10.78;100.00;100883.84;15290454;19;20074;-70
2022/01/02 07:43:51;;;;;;;10.13;3.10;;;;;;;10.71;100.00;100884.59;15269313;19;20499;-70
2022/01/02 07:48:53;;;;;;;9.95;2.92;;;;;;;10.67;100.00;100873.16;15273131;19;20021;-70
2022/01/02 07:53:54;;;;;;;15.30;3.45;;;;;;;10.70;100.00;100865.34;15272555;19;20007;-71
2022/01/02 07:58:58;;;;;;;6.53;3.13;;;;;;;10.69;100.00;100853.13;15275624;19;20090;-70
2022/01/02 08:03:59;;;;;;;11.32;3.22;;;;;;;10.64;100.00;100848.66;15290361;19;20316;-70
2022/01/02 08:09:01;;;;;;;11.95;3.40;;;;;;;10.67;100.00;100828.63;15295198;19;20046;-70
2022/01/02 08:14:03;;;;;;;13.57;3.67;;;;;;;10.67;100.00;100823.41;15290109;19;20006;-70
2022/01/02 08:19:08;;;;;;;11.60;2.80;;;;;;;10.73;100.00;100806.91;15293023;19;20537;-69
2022/01/02 08:24:10;;;;;;;12.25;3.20;;;;;;;10.67;100.00;100802.44;15283437;19;20503;-69
2022/01/02 08:29:12;;;;;;;10.23;3.00;;;;;;;10.70;100.00;100793.78;15286378;19;20082;-70
2022/01/02 08:34:13;;;;;;;13.13;3.20;;;;;;;10.72;100.00;100785.09;15283906;19;20097;-69
2022/01/02 08:39:15;;;;;;;9.82;3.08;;;;;;;10.84;99.42;100773.03;15287757;19;20022;-69
2022/01/02 08:44:20;;;;;;;9.70;3.28;;;;;;;10.87;98.90;100765.22;15284902;19;20074;-70
2022/01/02 08:49:22;;;;;;;14.75;2.90;;;;;;;10.89;98.88;100771.38;15284897;19;20014;-69
2022/01/02 08:54:24;;;;;;;10.05;3.15;;;;;;;10.81;99.49;100758.19;15278554;19;20023;-68
2022/01/02 08:59:27;;;;;;;6.90;3.58;;;;;;;10.84;99.43;100755.59;15284142;19;20116;-69
2022/01/02 09:04:30;;;;;;;11.13;2.85;;;;;;;10.81;99.51;100747.69;15284032;19;20007;-69
2022/01/02 09:09:33;;;;;;;6.90;2.80;;;;;;;10.77;99.58;100753.75;15285062;19;20007;-68
2022/01/02 09:14:35;;;;;;;5.72;2.63;;;;;;;10.71;100.00;100746.66;15289843;19;20027;-69
2022/01/02 09:19:37;;;;;;;14.55;3.03;;;;;;;10.71;100.00;100753.66;15302288;19;20706;-70
2022/01/02 09:24:38;;;;;;;7.88;3.00;;;;;;;10.76;100.00;100754.59;15292797;19;20482;-68
2022/01/02 09:29:40;;;;;;;11.23;2.70;;;;;;;10.70;100.00;100749.25;15296455;19;20476;-68
2022/01/02 09:34:42;;;;;;;11.20;2.70;;;;;;;10.66;100.00;100737.84;15289186;19;20011;-69
2022/01/02 09:39:43;;;;;;;11.63;3.15;;;;;;;10.65;100.00;100723.00;15299588;19;20018;-69
2022/01/02 09:44:46;;;;;;;9.23;2.75;;;;;;;10.70;100.00;100726.56;15292969;19;20050;-69
2022/01/02 09:49:48;;;;;;;12.05;2.95;;;;;;;10.77;100.00;100720.56;15297897;19;20345;-69
2022/01/02 09:54:52;;;;;;;11.38;2.92;;;;;;;10.76;100.00;100707.44;15291587;19;20534;-69
2022/01/02 09:59:55;;;;;;;11.20;3.08;;;;;;;10.76;100.00;100708.34;15304377;19;20015;-68
2022/01/02 10:05:02;;;;;;;12.63;3.00;;;;;;;10.77;100.00;100712.69;15302305;19;20465;-68
2022/01/02 10:10:09;;;;;;;8.60;3.35;;;;;;;10.84;99.98;100690.13;15294985;19;20435;-68
2022/01/02 10:15:23;;;;;;;9.95;2.67;;;;;;;10.84;100.00;100682.25;15277869;19;20589;-67
2022/01/02 10:20:44;;;;;;;9.40;2.92;;;;;;;10.89;100.00;100682.31;15280376;19;20043;-68
2022/01/02 10:25:53;;;;;;;9.15;2.75;;;;;;;10.91;99.34;100664.88;15279313;19;20691;-68
2022/01/02 10:30:59;;;;;;;12.03;2.77;;;;;;;10.95;99.41;100671.94;15281965;19;20030;-67
2022/01/02 10:36:03;;;;;;;10.10;2.83;;;;;;;10.95;98.50;100672.78;15296179;19;20027;-67
2022/01/02 10:41:04;;;;;;;6.43;2.58;;;;;;;10.98;98.11;100661.47;15294356;19;22497;-67
2022/01/02 10:46:07;;;;;;;11.02;2.60;;;;;;;11.02;97.88;100637.09;15297662;19;20027;-70
2022/01/02 10:51:16;;;;;;;8.38;2.60;;;;;;;11.04;97.37;100624.00;15292523;19;20390;-70
2022/01/02 10:56:21;;;;;;;12.10;3.22;;;;;;;11.02;97.06;100625.72;15297302;19;20007;-70
2022/01/02 11:01:29;;;;;;;7.07;2.65;;;;;;;11.18;96.26;100621.56;15293977;19;20010;-69
2022/01/02 11:06:33;;;;;;;10.77;3.80;;;;;;;11.25;96.31;100615.53;15296496;19;20688;-69
2022/01/02 11:11:34;;;;;;;10.88;5.15;;;;;;;11.37;94.60;100605.16;15289158;19;20027;-69
2022/01/02 11:16:38;;;;;;;10.77;3.95;;;;;;;11.44;93.45;100578.16;15292024;19;20021;-70
2022/01/02 11:21:44;;;;;;;11.15;4.72;;;;;;;11.76;92.74;100574.97;15289809;19;20017;-67
2022/01/02 11:26:54;;;;;;;9.43;3.65;;;;;;;11.73;92.51;100576.69;15293797;19;20462;-69
2022/01/02 11:31:56;;;;;;;11.73;3.33;;;;;;;11.61;92.17;100583.56;15290080;19;20028;-69
2022/01/02 11:37:15;;;;;;;8.50;3.47;;;;;;;11.54;91.99;100567.75;15287489;19;20359;-69
2022/01/02 11:42:35;;;;;;;8.23;3.87;;;;;;;11.48;91.87;100553.75;15288613;19;20010;-69
2022/01/02 11:47:46;;;;;;;7.45;3.35;;;;;;;11.42;91.33;100564.13;15291857;19;20082;-68
2022/01/02 11:53:16;;;;;;;9.30;3.20;;;;;;;11.34;91.05;100560.56;15285101;19;20077;-68
2022/01/02 11:58:42;;;;;;;6.47;3.45;;;;;;;11.40;90.09;100552.78;15290558;19;20709;-67
2022/01/02 12:03:46;;;;;;;8.68;3.05;;;;;;;11.45;89.61;100564.19;15286240;19;20417;-67
2022/01/02 12:08:53;;;;;;;6.57;2.70;;;;;;;11.56;89.44;100571.25;15284796;19;20023;-67
2022/01/02 12:14:21;;;;;;;8.50;2.80;;;;;;;11.50;89.01;100562.50;15285325;19;20030;-67
2022/01/02 12:19:25;;;;;;;8.95;2.80;;;;;;;11.49;88.22;100560.72;15269601;19;20027;-67
2022/01/02 12:24:30;;;;;;;8.98;3.10;;;;;;;11.50;87.75;100557.25;15268823;19;20014;-67
2022/01/02 12:29:33;;;;;;;9.27;2.92;;;;;;;11.53;87.26;100550.25;15269941;19;20019;-68
2022/01/02 12:34:35;;;;;;;11.35;2.60;;;;;;;11.37;87.88;100552.75;15270620;19;20481;-67
2022/01/02 12:39:40;;;;;;;8.25;2.42;;;;;;;11.31;88.13;100544.81;15273564;19;20123;-67
2022/01/02 12:44:44;;;;;;;10.85;3.00;;;;;;;11.28;89.52;100531.69;15269109;19;20006;-66
2022/01/02 12:49:56;;;;;;;5.97;2.60;;;;;;;11.30;88.77;100528.22;15267745;19;20017;-67
2022/01/02 12:54:57;;;;;;;8.25;2.47;;;;;;;11.31;88.77;100529.09;15270233;19;20002;-67
2022/01/02 12:59:59;;;;;;;8.93;2.55;;;;;;;11.18;89.80;100516.72;15272072;19;20049;-67
2022/01/02 13:05:04;;;;;;;11.05;2.65;;;;;;;11.23;88.97;100520.25;15267577;19;20017;-68
2022/01/02 13:10:08;;;;;;;9.27;2.80;;;;;;;11.20;88.54;100515.88;15265653;19;20018;-67
2022/01/02 13:15:16;;;;;;;8.98;2.75;;;;;;;11.10;90.16;100522.75;15266058;19;20179;-68
2022/01/02 13:20:19;;;;;;;9.30;3.63;;;;;;;11.16;89.68;100502.75;15266636;19;20010;-68
2022/01/02 13:25:33;;;;;;;8.90;2.75;;;;;;;11.13;88.65;100520.16;15260345;19;20017;-68
2022/01/02 13:30:47;;;;;;;10.35;2.53;;;;;;;11.05;89.18;100524.47;15282760;19;20021;-68
2022/01/02 13:35:51;;;;;;;8.43;2.67;;;;;;;11.05;89.92;100508.75;15280595;19;20066;-68
2022/01/02 13:40:53;;;;;;;8.43;2.60;;;;;;;11.08;89.88;100529.72;15282622;19;20716;-68
2022/01/02 13:45:58;;;;;;;9.70;3.22;;;;;;;11.04;90.19;100521.81;15278982;19;20086;-68
2022/01/02 13:51:01;;;;;;;8.48;2.63;;;;;;;10.98;90.40;100530.50;15279640;19;20010;-68
2022/01/02 13:56:08;;;;;;;10.15;2.90;;;;;;;10.96;89.94;100530.47;15280933;19;20014;-68
2022/01/02 14:01:22;;;;;;;10.93;3.88;;;;;;;10.96;90.23;100555.81;15290851;19;20078;-67
2022/01/02 14:06:29;;;;;;;10.00;3.40;;;;;;;10.94;89.89;100553.16;15295524;19;20038;-68
2022/01/02 14:11:35;;;;;;;8.20;2.85;;;;;;;10.92;89.83;100556.63;15295606;19;20015;-68
2022/01/02 14:22:10;;;;;;;9.57;2.80;;;;;;;10.94;87.54;100571.50;15293616;19;20031;-68
2022/01/02 14:27:18;;;;;;;9.65;2.22;;;;;;;10.91;86.55;100583.66;15292717;19;20023;-69
2022/01/02 14:32:20;;;;;;;8.50;2.13;;;;;;;10.90;84.71;100589.75;15291858;19;20035;-69
2022/01/02 14:37:26;;;;;;;8.93;2.90;;;;;;;10.88;85.06;100594.09;15293940;19;20015;-69
2022/01/02 14:42:28;;;;;;;15.70;4.80;;;;;;;10.83;84.43;100611.50;15291431;19;20049;-69
2022/01/02 14:47:31;;;;;;;4.10;1.27;;;;;;;10.72;84.36;100617.47;15290646;19;20020;-69
2022/01/02 14:52:35;;;;;;;8.73;1.65;;;;;;;10.71;84.42;100620.94;15290215;19;20010;-69
2022/01/02 14:57:37;;;;;;;3.42;1.15;;;;;;;10.67;84.24;100636.59;15292192;19;20014;-69
2022/01/02 15:02:39;;;;;;;8.60;1.65;;;;;;;10.61;84.89;100629.53;15290270;19;20610;-69
2022/01/02 15:07:41;;;;;;;5.10;1.40;;;;;;;10.55;85.13;100634.69;15290594;19;20395;-69
2022/01/02 15:12:42;;;;;;;6.28;1.52;;;;;;;10.49;85.33;100640.69;15290095;19;20074;-69
2022/01/02 15:17:47;;;;;;;5.60;1.80;;;;;;;10.44;86.23;100651.09;15290882;19;20034;-69
2022/01/02 15:22:52;;;;;;;9.07;2.15;;;;;;;10.37;86.48;100649.28;15287188;19;20010;-69
2022/01/02 15:27:55;;;;;;;9.70;2.17;;;;;;;10.25;87.21;100657.78;15288463;19;20022;-69
2022/01/02 15:32:57;;;;;;;8.13;1.70;;;;;;;10.19;87.31;100664.63;15287854;19;20634;-69
2022/01/02 15:37:59;;;;;;;7.40;1.45;;;;;;;10.24;86.05;100676.06;15290944;19;20405;-69
2022/01/02 15:43:01;;;;;;;8.35;1.90;;;;;;;10.16;86.24;100682.88;15287143;19;20107;-70
2022/01/02 15:48:05;;;;;;;7.68;2.05;;;;;;;10.12;86.91;100688.91;15286814;19;20010;-70
2022/01/02 15:53:06;;;;;;;5.10;1.45;;;;;;;10.11;85.99;100688.03;15286359;19;20035;-70
2022/01/02 15:58:08;;;;;;;7.43;1.50;;;;;;;10.02;86.07;100691.38;15288842;19;20015;-70
2022/01/02 16:03:09;;;;;;;10.05;1.83;;;;;;;10.00;85.89;100703.56;15287854;19;20082;-70
2022/01/02 16:08:15;;;;;;;7.38;1.50;;;;;;;9.93;85.83;100699.06;15286174;19;20014;-70
2022/01/02 16:13:17;;;;;;;6.72;1.48;;;;;;;9.92;85.81;100712.97;15285450;19;20395;-69
2022/01/02 16:18:19;;;;;;;5.22;0.77;;;;;;;9.81;85.83;100712.78;15288596;19;20011;-69
2022/01/02 16:23:20;;;;;;;7.72;1.55;;;;;;;9.87;86.06;100722.50;15282689;19;20363;-69
2022/01/02 16:28:22;;;;;;;16.77;4.18;;;;;;;9.81;86.18;100710.16;15284687;19;20014;-69
2022/01/02 16:33:24;;;;;;;16.92;4.63;;;;;;;9.73;85.66;100715.25;15283717;19;20470;-69
2022/01/02 16:38:25;;;;;;;32.72;6.57;;;;;;;9.65;86.46;100715.97;15286345;19;20363;-69
2022/01/02 16:43:27;;;;;;;16.67;3.92;;;;;;;9.61;87.24;100709.81;15283351;19;20018;-69
2022/01/02 16:48:29;;;;;;;4.10;0.98;;;;;;;9.55;87.25;100701.84;15283568;19;20017;-69
2022/01/02 16:53:30;;;;;;;8.52;1.30;;;;;;;9.54;87.91;100700.06;15282185;19;20066;-69
2022/01/02 16:58:32;;;;;;;12.75;3.28;;;;;;;9.49;88.36;100709.56;15284630;19;20030;-70
2022/01/02 17:03:34;;;;;;;9.00;3.00;;;;;;;9.37;89.70;100703.22;15283398;19;20011;-70
2022/01/02 17:08:36;;;;;;;10.18;2.50;;;;;;;9.37;90.95;100699.72;15282310;19;20081;-69
2022/01/02 17:13:37;;;;;;;10.07;2.17;;;;;;;9.31;90.70;100710.94;15281490;19;20010;-70
2022/01/02 17:18:39;;;;;;;9.43;1.75;;;;;;;9.29;91.43;100710.03;15283857;19;20017;-70
2022/01/02 17:23:41;;;;;;;7.22;1.77;;;;;;;9.28;91.07;100708.25;15282250;19;20010;-70
2022/01/02 17:28:43;;;;;;;7.55;1.92;;;;;;;9.44;91.39;100713.78;15280917;19;20015;-70
2022/01/02 17:33:45;;;;;;;8.18;2.17;;;;;;;9.49;90.23;100722.63;15282020;19;20489;-70
2022/01/02 17:38:46;;;;;;;16.70;5.55;;;;;;;9.51;89.37;100697.38;15298292;19;20002;-70
2022/01/02 17:43:48;;;;;;;17.20;4.80;;;;;;;9.53;89.53;100716.59;15293434;19;20015;-70
2022/01/02 17:48:50;;;;;;;23.23;6.53;;;;;;;9.51;89.82;100713.94;15294514;19;20029;-70
2022/01/02 17:53:51;;;;;;;23.98;5.68;;;;;;;9.51;89.85;100703.50;15293226;19;20073;-70
2022/01/02 17:58:53;;;;;;;14.15;4.03;;;;;;;9.53;89.83;100707.03;15296847;19;20078;-70
2022/01/02 18:03:55;;;;;;;8.50;2.47;;;;;;;9.49;89.63;100707.81;15293734;19;20651;-70
2022/01/02 18:09:03;;;;;;;11.27;2.22;;;;;;;9.46;89.67;100701.66;15292786;19;20795;-70
2022/01/02 18:14:05;;;;;;;9.10;3.67;;;;;;;9.38;89.98;100697.16;15291183;19;20733;-70
2022/01/02 18:19:07;;;;;;;6.53;2.17;;;;;;;9.30;90.33;100693.47;15295298;19;20542;-70
2022/01/02 18:24:11;;;;;;;7.35;1.75;;;;;;;9.29;89.72;100675.16;15291151;19;20034;-68
2022/01/02 18:29:14;;;;;;;3.80;1.17;;;;;;;9.30;89.54;100672.56;15291729;19;20482;-68
2022/01/02 18:34:16;;;;;;;9.48;2.28;;;;;;;9.20;90.11;100675.84;15291036;19;20018;-68
2022/01/02 18:39:18;;;;;;;10.32;1.85;;;;;;;9.22;90.05;100679.41;15294558;19;20094;-69
2022/01/02 18:44:19;;;;;;;8.52;2.58;;;;;;;9.02;90.78;100672.00;15289011;19;20434;-69
2022/01/02 18:49:21;;;;;;;6.57;1.23;;;;;;;9.06;90.65;100672.09;15288482;19;20548;-69
2022/01/02 18:54:23;;;;;;;7.75;2.10;;;;;;;9.02;90.77;100676.34;15288537;19;20018;-70
2022/01/02 18:59:25;;;;;;;16.02;3.70;;;;;;;9.03;91.08;100662.44;15292701;19;20025;-70
2022/01/02 19:04:27;;;;;;;9.20;2.35;;;;;;;9.05;90.69;100644.19;15289711;19;20021;-70
2022/01/02 19:09:29;;;;;;;4.88;1.58;;;;;;;9.00;90.85;100621.47;15292326;19;20014;-69
2022/01/02 19:14:32;;;;;;;13.70;2.92;;;;;;;8.95;91.60;100612.66;15287948;19;20085;-69
2022/01/02 19:19:34;;;;;;;7.53;2.35;;;;;;;8.94;91.71;100591.75;15290369;19;20078;-69
2022/01/02 19:24:35;;;;;;;4.15;1.58;;;;;;;8.90;91.61;100588.16;15286336;19;20035;-69
2022/01/02 19:29:37;;;;;;;7.90;1.65;;;;;;;8.75;92.53;100578.31;15294283;19;20435;-69
2022/01/02 19:34:39;;;;;;;6.40;1.55;;;;;;;8.74;92.56;100581.75;15293609;19;20720;-69
2022/01/02 19:39:44;;;;;;;10.63;1.88;;;;;;;8.64;92.77;100565.00;15291152;19;20447;-69
2022/01/02 19:44:47;;;;;;;12.18;2.00;;;;;;;8.59;92.76;100568.38;15291692;19;20074;-70
2022/01/02 19:49:51;;;;;;;7.72;1.63;;;;;;;8.62;93.09;100574.53;15292822;19;20094;-68
2022/01/02 19:54:53;;;;;;;9.15;1.73;;;;;;;8.60;93.23;100565.81;15286864;19;20588;-68
2022/01/02 19:59:57;;;;;;;10.23;1.63;;;;;;;8.65;93.40;100561.56;15275421;19;20014;-69
2022/01/02 20:04:59;;;;;;;8.90;2.20;;;;;;;8.63;93.41;100558.03;15276630;19;20030;-68
2022/01/02 20:10:06;;;;;;;6.82;1.70;;;;;;;8.64;93.58;100551.09;15291192;19;20015;-68
2022/01/02 20:15:11;;;;;;;7.40;1.80;;;;;;;8.63;93.67;100552.81;15282687;19;20383;-68
2022/01/02 20:20:16;;;;;;;11.18;2.00;;;;;;;8.59;93.93;100545.78;15286788;19;20011;-69
2022/01/02 20:25:18;;;;;;;8.75;1.95;;;;;;;8.61;94.18;100538.84;15283438;19;20010;-69
2022/01/02 20:30:19;;;;;;;9.82;2.28;;;;;;;8.61;94.22;100532.75;15283478;19;20031;-69
2022/01/02 20:35:21;;;;;;;5.07;2.13;;;;;;;8.63;93.99;100524.13;15283705;19;20088;-69
2022/01/02 20:40:23;;;;;;;6.97;2.25;;;;;;;8.58;94.21;100517.03;15292646;19;20019;-68
2022/01/02 20:45:29;;;;;;;9.57;2.40;;;;;;;8.60;94.58;100500.56;15282721;19;20082;-68
2022/01/02 20:50:32;;;;;;;14.70;2.47;;;;;;;8.55;94.30;100491.75;15283533;19;20585;-69
2022/01/02 20:55:35;;;;;;;10.60;2.53;;;;;;;8.53;94.86;100482.09;15281087;19;20066;-69
2022/01/02 21:00:37;;;;;;;8.70;2.40;;;;;;;8.53;95.22;100474.28;15286683;19;20066;-67
2022/01/02 21:05:39;;;;;;;11.45;2.83;;;;;;;8.57;94.82;100479.63;15280713;19;20510;-69
2022/01/02 21:10:43;;;;;;;13.52;2.17;;;;;;;8.66;94.45;100479.81;15293392;19;20012;-69
2022/01/02 21:15:45;;;;;;;10.75;2.05;;;;;;;8.66;95.23;100471.97;15294934;19;20014;-69
2022/01/02 21:20:50;;;;;;;9.38;2.20;;;;;;;8.72;94.94;100449.44;15299816;19;20349;-69
2022/01/02 21:25:52;;;;;;;15.70;2.30;;;;;;;8.74;94.74;100451.22;15298979;19;20006;-69
2022/01/02 21:30:53;;;;;;;7.53;2.17;;;;;;;8.75;94.92;100439.03;15295253;19;20541;-68
2022/01/02 21:35:55;;;;;;;8.43;2.03;;;;;;;8.83;94.56;100429.66;15299684;19;20447;-69
2022/01/02 21:40:57;;;;;;;12.48;2.78;;;;;;;8.91;94.41;100425.44;15298449;19;20677;-69
2022/01/02 21:45:58;;;;;;;21.30;2.67;;;;;;;8.95;95.36;100422.03;15300725;19;20002;-70
2022/01/02 21:51:00;;;;;;;12.95;2.33;;;;;;;8.95;95.65;100408.97;15293625;19;20007;-69
2022/01/02 21:56:02;;;;;;;6.70;1.90;;;;;;;8.94;96.25;100407.19;15296699;19;20107;-69
2022/01/02 22:01:09;;;;;;;10.60;2.53;;;;;;;8.91;96.84;100391.47;15297379;19;20018;-67
2022/01/02 22:06:11;;;;;;;12.75;2.10;;;;;;;8.87;97.75;100388.78;15295388;19;20086;-69
2022/01/02 22:11:14;;;;;;;10.13;2.53;;;;;;;8.89;98.57;100387.97;15292069;19;20010;-69
2022/01/02 22:16:18;;;;;;;13.23;2.58;;;;;;;8.94;98.21;100378.47;15295280;19;20343;-71
2022/01/02 22:21:24;;;;;;;13.82;2.65;;;;;;;8.90;97.24;100374.03;15292411;19;20042;-70
2022/01/02 22:26:26;;;;;;;14.52;2.35;;;;;;;8.83;98.81;100373.06;15295294;19;20011;-70
2022/01/02 22:31:31;;;;;;;8.45;2.40;;;;;;;8.67;99.54;100374.53;15291115;19;20819;-70
2022/01/02 22:36:34;;;;;;;14.73;2.55;;;;;;;8.60;99.38;100362.22;15293938;19;20030;-70
2022/01/02 22:41:36;;;;;;;9.85;1.90;;;;;;;8.53;99.46;100355.13;15292900;19;20015;-70
2022/01/02 22:46:44;;;;;;;8.02;1.83;;;;;;;8.47;99.43;100345.47;15293022;19;20011;-70
2022/01/02 22:51:48;;;;;;;6.85;1.83;;;;;;;8.39;100.00;100352.25;15292146;19;20010;-70
2022/01/02 22:57:04;;;;;;;12.50;2.15;;;;;;;8.38;100.00;100326.13;15292661;19;20017;-70
2022/01/02 23:02:06;;;;;;;9.77;2.22;;;;;;;8.25;100.00;100331.09;15293247;19;20007;-70
2022/01/02 23:07:08;;;;;;;7.90;1.95;;;;;;;8.27;100.00;100318.97;15291261;19;20006;-70
2022/01/02 23:12:10;;;;;;;8.93;2.40;;;;;;;8.24;100.00;100302.38;15291329;19;20014;-70
2022/01/02 23:17:16;;;;;;;4.90;2.25;;;;;;;8.18;100.00;100274.47;15291685;19;20086;-70
2022/01/02 23:22:19;;;;;;;8.90;2.45;;;;;;;8.15;100.00;100263.94;15289511;19;20082;-70